sensor_id;sensor_type;location;lat;lon;timestamp;pressure;altitude;pressure_sealevel;temperature;humidity
14041;BME280;7095;51.388;6.196;2023-06-10T00:01:24;53280.41;;;-145.32;92.70
14041;BME280;7095;51.388;6.196;2023-06-10T00:03:53;53290.38;;;-145.32;93.46
14041;BME280;7095;51.388;6.196;2023-06-10T00:06:22;53312.22;;;-145.32;94.65
14041;BME280;7095;51.388;6.196;2023-06-10T00:08:51;53294.34;;;-145.32;96.44
14041;BME280;7095;51.388;6.196;2023-06-10T00:11:21;53300.31;;;-145.32;97.71
14041;BME280;7095;51.388;6.196;2023-06-10T00:13:51;53292.34;;;-145.32;99.12
14041;BME280;7095;51.388;6.196;2023-06-10T00:16:20;53308.25;;;-145.32;98.52
14041;BME280;7095;51.388;6.196;2023-06-10T00:18:49;53320.19;;;-145.32;99.03
14041;BME280;7095;51.388;6.196;2023-06-10T00:21:19;53320.19;;;-145.32;100.00
14041;BME280;7095;51.388;6.196;2023-06-10T00:23:48;53322.16;;;-145.32;100.00
14041;BME280;7095;51.388;6.196;2023-06-10T00:26:17;53304.28;;;-145.32;100.00
14041;BME280;7095;51.388;6.196;2023-06-10T00:28:46;53324.16;;;-145.32;100.00
14041;BME280;7095;51.388;6.196;2023-06-10T00:31:16;53348.00;;;-145.32;100.00
14041;BME280;7095;51.388;6.196;2023-06-10T00:33:45;53318.19;;;-145.32;100.00
14041;BME280;7095;51.388;6.196;2023-06-10T00:36:14;53340.06;;;-145.32;100.00
14041;BME280;7095;51.388;6.196;2023-06-10T00:38:43;53346.03;;;-145.32;100.00
14041;BME280;7095;51.388;6.196;2023-06-10T00:41:12;53361.94;;;-145.32;100.00
14041;BME280;7095;51.388;6.196;2023-06-10T00:43:40;53348.00;;;-145.32;100.00
14041;BME280;7095;51.388;6.196;2023-06-10T00:46:09;53342.06;;;-145.32;100.00
14041;BME280;7095;51.388;6.196;2023-06-10T00:48:41;53363.91;;;-145.32;100.00
14041;BME280;7095;51.388;6.196;2023-06-10T00:51:11;53383.78;;;-145.32;100.00
14041;BME280;7095;51.388;6.196;2023-06-10T00:53:40;53371.88;;;-145.32;100.00
14041;BME280;7095;51.388;6.196;2023-06-10T00:56:09;53411.63;;;-145.32;100.00
14041;BME280;7095;51.388;6.196;2023-06-10T00:58:38;53435.47;;;-145.32;100.00
14041;BME280;7095;51.388;6.196;2023-06-10T01:01:07;53473.25;;;-145.32;100.00
14041;BME280;7095;51.388;6.196;2023-06-10T01:03:39;53515.00;;;-145.32;100.00
14041;BME280;7095;51.388;6.196;2023-06-10T01:06:21;53594.53;;;-145.32;100.00
14041;BME280;7095;51.388;6.196;2023-06-10T01:08:57;53594.53;;;-145.32;100.00
14041;BME280;7095;51.388;6.196;2023-06-10T01:11:34;53674.06;;;-145.32;100.00
14041;BME280;7095;51.388;6.196;2023-06-10T01:14:05;53687.97;;;-145.32;100.00
14041;BME280;7095;51.388;6.196;2023-06-10T01:16:35;53721.78;;;-145.32;100.00
14041;BME280;7095;51.388;6.196;2023-06-10T01:19:05;53801.31;;;-145.32;100.00
14041;BME280;7095;51.388;6.196;2023-06-10T01:21:37;53868.91;;;-145.32;100.00
14041;BME280;7095;51.388;6.196;2023-06-10T01:24:07;53924.56;;;-145.32;100.00
14041;BME280;7095;51.388;6.196;2023-06-10T01:26:39;53972.28;;;-145.32;100.00
14041;BME280;7095;51.388;6.196;2023-06-10T01:29:16;54035.91;;;-145.32;100.00
14041;BME280;7095;51.388;6.196;2023-06-10T01:31:49;54065.75;;;-145.32;100.00
14041;BME280;7095;51.388;6.196;2023-06-10T01:34:21;54043.88;;;-145.32;100.00
14041;BME280;7095;51.388;6.196;2023-06-10T01:36:54;53972.28;;;-145.32;100.00
14041;BME280;7095;51.388;6.196;2023-06-10T01:39:24;53936.50;;;-145.32;100.00
14041;BME280;7095;51.388;6.196;2023-06-10T01:41:58;53916.63;;;-145.32;100.00
14041;BME280;7095;51.388;6.196;2023-06-10T01:44:27;53878.84;;;-145.32;100.00
14041;BME280;7095;51.388;6.196;2023-06-10T01:46:55;53845.03;;;-145.32;100.00
14041;BME280;7095;51.388;6.196;2023-06-10T01:49:24;53841.06;;;-145.32;100.00
14041;BME280;7095;51.388;6.196;2023-06-10T01:51:54;53833.13;;;-145.32;100.00
14041;BME280;7095;51.388;6.196;2023-06-10T01:54:23;53803.28;;;-145.32;100.00
14041;BME280;7095;51.388;6.196;2023-06-10T01:56:51;53781.41;;;-145.32;100.00
14041;BME280;7095;51.388;6.196;2023-06-10T01:59:21;53803.28;;;-145.32;100.00
14041;BME280;7095;51.388;6.196;2023-06-10T02:01:49;53809.25;;;-145.32;100.00
14041;BME280;7095;51.388;6.196;2023-06-10T02:04:18;53815.22;;;-145.32;100.00
14041;BME280;7095;51.388;6.196;2023-06-10T02:06:46;53825.16;;;-145.32;100.00
14041;BME280;7095;51.388;6.196;2023-06-10T02:09:16;53833.13;;;-145.32;100.00
14041;BME280;7095;51.388;6.196;2023-06-10T02:11:46;53862.94;;;-145.32;100.00
14041;BME280;7095;51.388;6.196;2023-06-10T02:14:14;53900.72;;;-145.32;100.00
14041;BME280;7095;51.388;6.196;2023-06-10T02:16:43;53918.59;;;-145.32;100.00
14041;BME280;7095;51.388;6.196;2023-06-10T02:19:12;53950.44;;;-145.32;100.00
14041;BME280;7095;51.388;6.196;2023-06-10T02:21:41;53972.28;;;-145.32;100.00
14041;BME280;7095;51.388;6.196;2023-06-10T02:24:09;54031.94;;;-145.32;100.00
14041;BME280;7095;51.388;6.196;2023-06-10T02:26:39;54049.84;;;-145.32;100.00
14041;BME280;7095;51.388;6.196;2023-06-10T02:29:08;54115.47;;;-145.32;100.00
14041;BME280;7095;51.388;6.196;2023-06-10T02:31:37;54147.28;;;-145.32;100.00
14041;BME280;7095;51.388;6.196;2023-06-10T02:34:08;54175.13;;;-145.32;100.00
14041;BME280;7095;51.388;6.196;2023-06-10T02:36:36;54234.75;;;-145.32;100.00
14041;BME280;7095;51.388;6.196;2023-06-10T02:39:07;54276.53;;;-145.32;100.00
14041;BME280;7095;51.388;6.196;2023-06-10T02:41:36;54338.16;;;-145.32;100.00
14041;BME280;7095;51.388;6.196;2023-06-10T02:44:06;54409.75;;;-145.32;100.00
14041;BME280;7095;51.388;6.196;2023-06-10T02:46:35;54427.66;;;-145.32;100.00
14041;BME280;7095;51.388;6.196;2023-06-10T02:49:04;54481.34;;;-145.32;100.00
14041;BME280;7095;51.388;6.196;2023-06-10T02:51:34;54517.16;;;-145.32;100.00
14041;BME280;7095;51.388;6.196;2023-06-10T02:54:04;54624.53;;;-145.32;100.00
14041;BME280;7095;51.388;6.196;2023-06-10T02:56:33;54787.63;;;-145.32;100.00
14041;BME280;7095;51.388;6.196;2023-06-10T02:59:04;54910.91;;;-145.32;100.00
14041;BME280;7095;51.388;6.196;2023-06-10T03:01:36;54948.72;;;-145.32;100.00
14041;BME280;7095;51.388;6.196;2023-06-10T03:04:08;55022.31;;;-145.32;100.00
14041;BME280;7095;51.388;6.196;2023-06-10T03:06:37;55078.00;;;-145.32;100.00
14041;BME280;7095;51.388;6.196;2023-06-10T03:09:17;55107.81;;;-145.32;100.00
14041;BME280;7095;51.388;6.196;2023-06-10T03:11:49;55111.81;;;-145.32;100.00
14041;BME280;7095;51.388;6.196;2023-06-10T03:14:18;55181.41;;;-145.32;100.00
14041;BME280;7095;51.388;6.196;2023-06-10T03:16:48;55288.84;;;-145.32;100.00
14041;BME280;7095;51.388;6.196;2023-06-10T03:19:18;55489.75;;;-145.32;100.00
14041;BME280;7095;51.388;6.196;2023-06-10T03:21:57;55615.06;;;-145.32;100.00
14041;BME280;7095;51.388;6.196;2023-06-10T03:24:26;55607.09;;;-145.32;100.00
14041;BME280;7095;51.388;6.196;2023-06-10T03:26:55;55650.88;;;-145.32;100.00
14041;BME280;7095;51.388;6.196;2023-06-10T03:29:23;55734.41;;;-145.32;100.00
14041;BME280;7095;51.388;6.196;2023-06-10T03:31:55;55981.13;;;-145.32;100.00
14041;BME280;7095;51.388;6.196;2023-06-10T03:34:24;55933.38;;;-145.32;100.00
14041;BME280;7095;51.388;6.196;2023-06-10T03:36:53;56028.84;;;-145.32;100.00
14041;BME280;7095;51.388;6.196;2023-06-10T03:39:21;56096.50;;;-145.32;100.00
14041;BME280;7095;51.388;6.196;2023-06-10T03:41:50;56243.75;;;-145.32;100.00
14041;BME280;7095;51.388;6.196;2023-06-10T03:44:19;56182.06;;;-145.32;100.00
14041;BME280;7095;51.388;6.196;2023-06-10T03:46:48;56174.09;;;-145.32;100.00
14041;BME280;7095;51.388;6.196;2023-06-10T03:49:18;56194.00;;;-145.32;100.00
14041;BME280;7095;51.388;6.196;2023-06-10T03:51:47;56102.47;;;-145.32;100.00
14041;BME280;7095;51.388;6.196;2023-06-10T03:54:16;56064.69;;;-145.32;100.00
14041;BME280;7095;51.388;6.196;2023-06-10T03:56:44;56050.75;;;-145.32;100.00
14041;BME280;7095;51.388;6.196;2023-06-10T03:59:14;55935.34;;;-145.32;100.00
14041;BME280;7095;51.388;6.196;2023-06-10T04:01:42;55875.66;;;-145.32;100.00
14041;BME280;7095;51.388;6.196;2023-06-10T04:04:14;55823.94;;;-145.32;100.00
14041;BME280;7095;51.388;6.196;2023-06-10T04:06:45;55698.63;;;-145.32;100.00
14041;BME280;7095;51.388;6.196;2023-06-10T04:09:14;55638.94;;;-145.32;100.00
14041;BME280;7095;51.388;6.196;2023-06-10T04:11:43;55591.19;;;-145.32;100.00
14041;BME280;7095;51.388;6.196;2023-06-10T04:14:12;55479.78;;;-145.32;100.00
14041;BME280;7095;51.388;6.196;2023-06-10T04:16:42;55440.00;;;-145.32;100.00
14041;BME280;7095;51.388;6.196;2023-06-10T04:19:11;55362.44;;;-145.32;100.00
14041;BME280;7095;51.388;6.196;2023-06-10T04:21:40;55376.34;;;-145.32;100.00
14041;BME280;7095;51.388;6.196;2023-06-10T04:24:10;55376.34;;;-145.32;100.00
14041;BME280;7095;51.388;6.196;2023-06-10T04:26:39;55312.69;;;-145.32;100.00
14041;BME280;7095;51.388;6.196;2023-06-10T04:29:08;55264.97;;;-145.32;100.00
14041;BME280;7095;51.388;6.196;2023-06-10T04:31:36;55087.94;;;-145.32;100.00
14041;BME280;7095;51.388;6.196;2023-06-10T04:34:05;54982.53;;;-145.32;100.00
14041;BME280;7095;51.388;6.196;2023-06-10T04:36:34;54934.78;;;-145.32;100.00
14041;BME280;7095;51.388;6.196;2023-06-10T04:39:03;54889.03;;;-145.32;100.00
14041;BME280;7095;51.388;6.196;2023-06-10T04:41:35;54950.69;;;-145.32;100.00
14041;BME280;7095;51.388;6.196;2023-06-10T04:44:04;54954.69;;;-145.32;100.00
14041;BME280;7095;51.388;6.196;2023-06-10T04:46:33;54944.72;;;-145.32;100.00
14041;BME280;7095;51.388;6.196;2023-06-10T04:49:02;54889.03;;;-145.32;100.00
14041;BME280;7095;51.388;6.196;2023-06-10T04:51:32;54825.41;;;-145.32;100.00
14041;BME280;7095;51.388;6.196;2023-06-10T04:54:01;54785.63;;;-145.32;100.00
14041;BME280;7095;51.388;6.196;2023-06-10T04:56:30;54704.09;;;-145.32;100.00
14041;BME280;7095;51.388;6.196;2023-06-10T04:59:00;54676.25;;;-145.32;100.00
14041;BME280;7095;51.388;6.196;2023-06-10T05:01:29;54624.53;;;-145.32;100.00
14041;BME280;7095;51.388;6.196;2023-06-10T05:03:57;54592.72;;;-145.32;100.00
14041;BME280;7095;51.388;6.196;2023-06-10T05:06:26;54568.84;;;-145.32;100.00
14041;BME280;7095;51.388;6.196;2023-06-10T05:08:55;54529.06;;;-145.32;100.00
14041;BME280;7095;51.388;6.196;2023-06-10T05:11:23;54505.22;;;-145.32;100.00
14041;BME280;7095;51.388;6.196;2023-06-10T05:13:52;54513.16;;;-145.32;100.00
14041;BME280;7095;51.388;6.196;2023-06-10T05:16:22;54465.44;;;-145.32;100.00
14041;BME280;7095;51.388;6.196;2023-06-10T05:18:51;54479.34;;;-145.32;100.00
14041;BME280;7095;51.388;6.196;2023-06-10T05:21:19;54441.56;;;-145.32;100.00
14041;BME280;7095;51.388;6.196;2023-06-10T05:23:48;54429.66;;;-145.32;100.00
14041;BME280;7095;51.388;6.196;2023-06-10T05:26:17;54389.88;;;-145.32;100.00
14041;BME280;7095;51.388;6.196;2023-06-10T05:28:45;54373.97;;;-145.32;100.00
14041;BME280;7095;51.388;6.196;2023-06-10T05:31:14;54328.22;;;-145.32;100.00
14041;BME280;7095;51.388;6.196;2023-06-10T05:33:44;54274.53;;;-145.32;100.00
14041;BME280;7095;51.388;6.196;2023-06-10T05:36:12;54258.63;;;-145.32;100.00
14041;BME280;7095;51.388;6.196;2023-06-10T05:38:41;54216.88;;;-145.32;100.00
14041;BME280;7095;51.388;6.196;2023-06-10T05:41:09;54173.13;;;-145.32;100.00
14041;BME280;7095;51.388;6.196;2023-06-10T05:43:38;54093.59;;;-145.32;100.00
14041;BME280;7095;51.388;6.196;2023-06-10T05:46:07;54127.38;;;-145.32;100.00
14041;BME280;7095;51.388;6.196;2023-06-10T05:48:35;54091.59;;;-145.32;100.00
14041;BME280;7095;51.388;6.196;2023-06-10T05:51:05;54071.72;;;-145.32;100.00
14041;BME280;7095;51.388;6.196;2023-06-10T05:53:34;53968.31;;;-145.32;100.00
14041;BME280;7095;51.388;6.196;2023-06-10T05:56:02;53968.31;;;-145.32;100.00
14041;BME280;7095;51.388;6.196;2023-06-10T05:58:31;53944.47;;;-145.32;100.00
14041;BME280;7095;51.388;6.196;2023-06-10T06:00:59;53936.50;;;-145.32;100.00
14041;BME280;7095;51.388;6.196;2023-06-10T06:03:28;53896.75;;;-145.32;100.00
14041;BME280;7095;51.388;6.196;2023-06-10T06:05:57;53864.94;;;-145.32;100.00
14041;BME280;7095;51.388;6.196;2023-06-10T06:08:27;53827.16;;;-145.32;100.00
14041;BME280;7095;51.388;6.196;2023-06-10T06:10:55;53839.06;;;-145.32;100.00
14041;BME280;7095;51.388;6.196;2023-06-10T06:13:24;53809.25;;;-145.32;100.00
14041;BME280;7095;51.388;6.196;2023-06-10T06:15:53;53773.47;;;-145.32;100.00
14041;BME280;7095;51.388;6.196;2023-06-10T06:18:22;53753.59;;;-145.32;100.00
14041;BME280;7095;51.388;6.196;2023-06-10T06:20:50;53729.72;;;-145.32;100.00
14041;BME280;7095;51.388;6.196;2023-06-10T06:23:19;53707.84;;;-145.32;100.00
14041;BME280;7095;51.388;6.196;2023-06-10T06:25:49;53701.88;;;-145.32;100.00
14041;BME280;7095;51.388;6.196;2023-06-10T06:28:19;53642.25;;;-145.32;100.00
14041;BME280;7095;51.388;6.196;2023-06-10T06:30:48;53630.31;;;-145.32;100.00
14041;BME280;7095;51.388;6.196;2023-06-10T06:33:16;53618.38;;;-145.32;100.00
14041;BME280;7095;51.388;6.196;2023-06-10T06:35:46;53616.41;;;-145.32;100.00
14041;BME280;7095;51.388;6.196;2023-06-10T06:38:14;53634.28;;;-145.32;100.00
14041;BME280;7095;51.388;6.196;2023-06-10T06:40:43;53638.28;;;-145.32;100.00
14041;BME280;7095;51.388;6.196;2023-06-10T06:43:13;53598.50;;;-145.32;100.00
14041;BME280;7095;51.388;6.196;2023-06-10T06:45:44;53614.41;;;-145.32;100.00
14041;BME280;7095;51.388;6.196;2023-06-10T06:48:13;53618.38;;;-145.32;100.00
14041;BME280;7095;51.388;6.196;2023-06-10T06:50:42;53620.38;;;-145.32;100.00
14041;BME280;7095;51.388;6.196;2023-06-10T06:53:11;53634.28;;;-145.32;100.00
14041;BME280;7095;51.388;6.196;2023-06-10T06:55:39;53644.22;;;-145.32;100.00
14041;BME280;7095;51.388;6.196;2023-06-10T06:58:08;53614.41;;;-145.32;100.00
14041;BME280;7095;51.388;6.196;2023-06-10T07:00:38;53578.63;;;-145.32;100.00
14041;BME280;7095;51.388;6.196;2023-06-10T07:03:06;53524.94;;;-145.32;100.00
14041;BME280;7095;51.388;6.196;2023-06-10T07:05:35;53477.22;;;-145.32;100.00
14041;BME280;7095;51.388;6.196;2023-06-10T07:08:04;53499.09;;;-145.32;100.00
14041;BME280;7095;51.388;6.196;2023-06-10T07:10:33;53479.22;;;-145.32;100.00
14041;BME280;7095;51.388;6.196;2023-06-10T07:13:02;53457.34;;;-145.32;100.00
14041;BME280;7095;51.388;6.196;2023-06-10T07:15:30;53435.47;;;-145.32;100.00
14041;BME280;7095;51.388;6.196;2023-06-10T07:18:01;53427.53;;;-145.32;100.00
14041;BME280;7095;51.388;6.196;2023-06-10T07:20:30;53447.41;;;-145.32;100.00
14041;BME280;7095;51.388;6.196;2023-06-10T07:22:58;53397.72;;;-145.32;100.00
14041;BME280;7095;51.388;6.196;2023-06-10T07:25:27;53411.63;;;-145.32;100.00
14041;BME280;7095;51.388;6.196;2023-06-10T07:27:55;53371.88;;;-145.32;98.94
14041;BME280;7095;51.388;6.196;2023-06-10T07:30:24;53367.91;;;-145.32;97.70
14041;BME280;7095;51.388;6.196;2023-06-10T07:32:52;53387.78;;;-145.32;97.42
14041;BME280;7095;51.388;6.196;2023-06-10T07:35:24;53361.94;;;-145.32;96.03
14041;BME280;7095;51.388;6.196;2023-06-10T07:37:52;53353.97;;;-145.32;95.19
14041;BME280;7095;51.388;6.196;2023-06-10T07:40:21;53359.94;;;-145.32;93.74
14041;BME280;7095;51.388;6.196;2023-06-10T07:42:50;53340.06;;;-145.32;91.29
14041;BME280;7095;51.388;6.196;2023-06-10T07:45:19;53348.00;;;-145.32;90.02
14041;BME280;7095;51.388;6.196;2023-06-10T07:47:48;53363.91;;;-145.32;87.96
14041;BME280;7095;51.388;6.196;2023-06-10T07:50:17;53326.16;;;-145.32;89.02
14041;BME280;7095;51.388;6.196;2023-06-10T07:52:47;53338.06;;;-145.32;87.09
14041;BME280;7095;51.388;6.196;2023-06-10T07:55:16;53296.31;;;-145.32;86.29
14041;BME280;7095;51.388;6.196;2023-06-10T07:57:44;53324.16;;;-145.32;84.22
14041;BME280;7095;51.388;6.196;2023-06-10T08:00:13;53340.06;;;-145.32;83.79
14041;BME280;7095;51.388;6.196;2023-06-10T08:02:42;53306.28;;;-145.32;81.92
14041;BME280;7095;51.388;6.196;2023-06-10T08:05:10;53292.34;;;-145.32;81.24
14041;BME280;7095;51.388;6.196;2023-06-10T08:07:40;53282.41;;;-145.32;79.35
14041;BME280;7095;51.388;6.196;2023-06-10T08:10:11;53264.53;;;-145.32;77.41
14041;BME280;7095;51.388;6.196;2023-06-10T08:12:40;53280.41;;;-145.32;74.82
14041;BME280;7095;51.388;6.196;2023-06-10T08:15:09;53260.53;;;-145.32;72.27
14041;BME280;7095;51.388;6.196;2023-06-10T08:17:38;53262.53;;;-145.32;70.16
14041;BME280;7095;51.388;6.196;2023-06-10T08:20:07;53262.53;;;-145.32;68.82
14041;BME280;7095;51.388;6.196;2023-06-10T08:22:36;53276.44;;;-145.32;67.87
14041;BME280;7095;51.388;6.196;2023-06-10T08:25:05;53260.53;;;-145.32;66.89
14041;BME280;7095;51.388;6.196;2023-06-10T08:27:36;53240.66;;;-145.32;67.41
14041;BME280;7095;51.388;6.196;2023-06-10T08:30:06;53256.56;;;-145.32;65.31
14041;BME280;7095;51.388;6.196;2023-06-10T08:32:35;53252.59;;;-145.32;64.48
14041;BME280;7095;51.388;6.196;2023-06-10T08:35:04;53242.66;;;-145.32;64.66
14041;BME280;7095;51.388;6.196;2023-06-10T08:37:33;53256.56;;;-145.32;64.17
14041;BME280;7095;51.388;6.196;2023-06-10T08:40:02;53240.66;;;-145.32;62.07
14041;BME280;7095;51.388;6.196;2023-06-10T08:42:33;53236.69;;;-145.32;61.13
14041;BME280;7095;51.388;6.196;2023-06-10T08:45:07;53236.69;;;-145.32;62.12
14041;BME280;7095;51.388;6.196;2023-06-10T08:47:42;53224.75;;;-145.32;63.01
14041;BME280;7095;51.388;6.196;2023-06-10T08:50:13;53232.72;;;-145.32;62.96
14041;BME280;7095;51.388;6.196;2023-06-10T08:52:44;53204.88;;;-145.32;60.65
14041;BME280;7095;51.388;6.196;2023-06-10T08:55:18;53240.66;;;-145.32;61.16
14041;BME280;7095;51.388;6.196;2023-06-10T08:57:47;53220.78;;;-145.32;62.84
14041;BME280;7095;51.388;6.196;2023-06-10T09:00:18;53220.78;;;-145.32;63.15
14041;BME280;7095;51.388;6.196;2023-06-10T09:02:47;53198.91;;;-145.32;64.96
14041;BME280;7095;51.388;6.196;2023-06-10T09:05:15;53248.63;;;-145.32;66.88
14041;BME280;7095;51.388;6.196;2023-06-10T09:07:47;53214.81;;;-145.32;60.17
14041;BME280;7095;51.388;6.196;2023-06-10T09:10:16;53230.72;;;-145.32;59.04
14041;BME280;7095;51.388;6.196;2023-06-10T09:12:45;53200.91;;;-145.32;56.80
14041;BME280;7095;51.388;6.196;2023-06-10T09:15:14;53224.75;;;-145.32;60.06
14041;BME280;7095;51.388;6.196;2023-06-10T09:17:45;53250.59;;;-145.32;59.31
14041;BME280;7095;51.388;6.196;2023-06-10T09:20:14;53232.72;;;-145.32;55.55
14041;BME280;7095;51.388;6.196;2023-06-10T09:22:44;53198.91;;;-145.32;53.37
14041;BME280;7095;51.388;6.196;2023-06-10T09:25:13;53218.81;;;-145.32;52.94
14041;BME280;7095;51.388;6.196;2023-06-10T09:27:45;53212.84;;;-145.32;52.10
14041;BME280;7095;51.388;6.196;2023-06-10T09:30:25;53208.84;;;-145.32;49.85
14041;BME280;7095;51.388;6.196;2023-06-10T09:32:58;53204.88;;;-145.32;51.14
14041;BME280;7095;51.388;6.196;2023-06-10T09:35:29;53177.06;;;-145.32;49.74
14041;BME280;7095;51.388;6.196;2023-06-10T09:38:00;53188.97;;;-145.32;49.15
14041;BME280;7095;51.388;6.196;2023-06-10T09:40:29;53194.94;;;-145.32;49.32
14041;BME280;7095;51.388;6.196;2023-06-10T09:42:59;53192.94;;;-145.32;48.65
14041;BME280;7095;51.388;6.196;2023-06-10T09:45:30;53188.97;;;-145.32;48.70
14041;BME280;7095;51.388;6.196;2023-06-10T09:48:01;53163.13;;;-145.32;46.58
14041;BME280;7095;51.388;6.196;2023-06-10T09:50:33;53200.91;;;-145.32;46.34
14041;BME280;7095;51.388;6.196;2023-06-10T09:53:02;53169.09;;;-145.32;45.97
14041;BME280;7095;51.388;6.196;2023-06-10T09:55:32;53188.97;;;-145.32;46.35
14041;BME280;7095;51.388;6.196;2023-06-10T09:58:03;53187.00;;;-145.32;46.15
14041;BME280;7095;51.388;6.196;2023-06-10T10:00:33;53173.06;;;-145.32;45.18
14041;BME280;7095;51.388;6.196;2023-06-10T10:03:03;53171.09;;;-145.32;44.62
14041;BME280;7095;51.388;6.196;2023-06-10T10:05:34;53173.06;;;-145.32;44.29
14041;BME280;7095;51.388;6.196;2023-06-10T10:08:03;53165.13;;;-145.32;44.06
14041;BME280;7095;51.388;6.196;2023-06-10T10:10:32;53149.22;;;-145.32;43.83
14041;BME280;7095;51.388;6.196;2023-06-10T10:13:01;53179.03;;;-145.32;43.08
14041;BME280;7095;51.388;6.196;2023-06-10T10:15:32;53159.16;;;-145.32;42.01
14041;BME280;7095;51.388;6.196;2023-06-10T10:18:07;53177.06;;;-145.32;41.40
14041;BME280;7095;51.388;6.196;2023-06-10T10:20:49;53149.22;;;-145.32;41.39
14041;BME280;7095;51.388;6.196;2023-06-10T10:23:25;53145.25;;;-145.32;42.79
14041;BME280;7095;51.388;6.196;2023-06-10T10:25:55;53169.09;;;-145.32;41.59
14041;BME280;7095;51.388;6.196;2023-06-10T10:28:32;53165.13;;;-145.32;41.24
14041;BME280;7095;51.388;6.196;2023-06-10T10:31:08;53175.06;;;-145.32;41.97
14041;BME280;7095;51.388;6.196;2023-06-10T10:33:54;53165.13;;;-145.32;40.01
14041;BME280;7095;51.388;6.196;2023-06-10T10:36:24;53145.25;;;-145.32;40.53
14041;BME280;7095;51.388;6.196;2023-06-10T10:38:55;53137.28;;;-145.32;40.14
14041;BME280;7095;51.388;6.196;2023-06-10T10:41:26;53159.16;;;-145.32;40.59
14041;BME280;7095;51.388;6.196;2023-06-10T10:43:56;53139.28;;;-145.32;39.80
14041;BME280;7095;51.388;6.196;2023-06-10T10:46:26;53155.19;;;-145.32;38.61
14041;BME280;7095;51.388;6.196;2023-06-10T10:48:57;53149.22;;;-145.32;39.09
14041;BME280;7095;51.388;6.196;2023-06-10T10:51:33;53149.22;;;-145.32;39.54
14041;BME280;7095;51.388;6.196;2023-06-10T10:54:12;53165.13;;;-145.32;38.60
14041;BME280;7095;51.388;6.196;2023-06-10T10:57:12;53143.25;;;-145.32;37.11
14041;BME280;7095;51.388;6.196;2023-06-10T10:59:52;53141.28;;;-145.32;37.23
14041;BME280;7095;51.388;6.196;2023-06-10T11:02:37;53141.28;;;-145.32;37.45
14041;BME280;7095;51.388;6.196;2023-06-10T11:05:13;53153.19;;;-145.32;37.44
14041;BME280;7095;51.388;6.196;2023-06-10T11:07:52;53161.16;;;-145.32;37.15
14041;BME280;7095;51.388;6.196;2023-06-10T11:10:29;53149.22;;;-145.32;36.81
14041;BME280;7095;51.388;6.196;2023-06-10T11:12:59;53145.25;;;-145.32;37.39
14041;BME280;7095;51.388;6.196;2023-06-10T11:15:29;53155.19;;;-145.32;37.36
14041;BME280;7095;51.388;6.196;2023-06-10T11:18:09;53165.13;;;-145.32;37.00
14041;BME280;7095;51.388;6.196;2023-06-10T11:20:51;53149.22;;;-145.32;34.80
14041;BME280;7095;51.388;6.196;2023-06-10T11:23:41;53135.31;;;-145.32;35.30
14041;BME280;7095;51.388;6.196;2023-06-10T11:26:17;53177.06;;;-145.32;35.26
14041;BME280;7095;51.388;6.196;2023-06-10T11:29:08;53198.91;;;-145.32;35.46
14041;BME280;7095;51.388;6.196;2023-06-10T11:31:43;53185.00;;;-145.32;34.79
14041;BME280;7095;51.388;6.196;2023-06-10T11:34:12;53187.00;;;-145.32;34.26
14041;BME280;7095;51.388;6.196;2023-06-10T11:36:43;53214.81;;;-145.32;33.30
14041;BME280;7095;51.388;6.196;2023-06-10T11:39:13;53190.97;;;-145.32;33.13
14041;BME280;7095;51.388;6.196;2023-06-10T11:41:42;53200.91;;;-145.32;32.90
14041;BME280;7095;51.388;6.196;2023-06-10T11:44:12;53208.84;;;-145.32;32.36
14041;BME280;7095;51.388;6.196;2023-06-10T11:46:48;53214.81;;;-145.32;31.47
14041;BME280;7095;51.388;6.196;2023-06-10T11:49:17;53190.97;;;-145.32;31.04
14041;BME280;7095;51.388;6.196;2023-06-10T11:51:47;53216.81;;;-145.32;30.25
14041;BME280;7095;51.388;6.196;2023-06-10T11:54:24;53200.91;;;-145.32;30.90
14041;BME280;7095;51.388;6.196;2023-06-10T11:57:00;53224.75;;;-145.32;30.00
14041;BME280;7095;51.388;6.196;2023-06-10T11:59:31;53206.88;;;-145.32;29.11
14041;BME280;7095;51.388;6.196;2023-06-10T12:02:00;53194.94;;;-145.32;29.05
14041;BME280;7095;51.388;6.196;2023-06-10T12:04:29;53224.75;;;-145.32;29.50
14041;BME280;7095;51.388;6.196;2023-06-10T12:07:00;53248.63;;;-145.32;29.66
14041;BME280;7095;51.388;6.196;2023-06-10T12:09:30;53196.94;;;-145.32;28.73
14041;BME280;7095;51.388;6.196;2023-06-10T12:12:00;53234.69;;;-145.32;29.05
14041;BME280;7095;51.388;6.196;2023-06-10T12:14:53;53228.75;;;-145.32;28.28
14041;BME280;7095;51.388;6.196;2023-06-10T12:17:35;53242.66;;;-145.32;28.76
14041;BME280;7095;51.388;6.196;2023-06-10T12:20:09;53234.69;;;-145.32;28.55
14041;BME280;7095;51.388;6.196;2023-06-10T12:22:43;53252.59;;;-145.32;28.04
14041;BME280;7095;51.388;6.196;2023-06-10T12:25:13;53226.75;;;-145.32;27.76
14041;BME280;7095;51.388;6.196;2023-06-10T12:27:50;53214.81;;;-145.32;27.65
14041;BME280;7095;51.388;6.196;2023-06-10T12:30:21;53248.63;;;-145.32;27.39
14041;BME280;7095;51.388;6.196;2023-06-10T12:32:51;53246.63;;;-145.32;27.06
14041;BME280;7095;51.388;6.196;2023-06-10T12:35:22;53248.63;;;-145.32;27.43
14041;BME280;7095;51.388;6.196;2023-06-10T12:37:57;53248.63;;;-145.32;27.99
14041;BME280;7095;51.388;6.196;2023-06-10T12:40:27;53238.69;;;-145.32;26.65
14041;BME280;7095;51.388;6.196;2023-06-10T12:42:57;53224.75;;;-145.32;26.93
14041;BME280;7095;51.388;6.196;2023-06-10T12:45:27;53242.66;;;-145.32;26.44
14041;BME280;7095;51.388;6.196;2023-06-10T12:48:08;53232.72;;;-145.32;27.34
14041;BME280;7095;51.388;6.196;2023-06-10T12:50:38;53260.53;;;-145.32;25.79
14041;BME280;7095;51.388;6.196;2023-06-10T12:53:09;53280.41;;;-145.32;26.03
14041;BME280;7095;51.388;6.196;2023-06-10T12:55:38;53278.44;;;-145.32;25.68
14041;BME280;7095;51.388;6.196;2023-06-10T12:58:07;53266.50;;;-145.32;25.96
14041;BME280;7095;51.388;6.196;2023-06-10T13:00:36;53312.22;;;-145.32;25.39
14041;BME280;7095;51.388;6.196;2023-06-10T13:03:06;53282.41;;;-145.32;26.19